sensor_id;sensor_type;location;lat;lon;timestamp;pressure;altitude;pressure_sealevel;temperature;humidity
49515;BME280;35415;47.870;16.058;2023-02-23T00:02:02;97056.38;;;5.36;89.79
49515;BME280;35415;47.870;16.058;2023-02-23T00:04:30;97065.41;;;5.35;90.39
49515;BME280;35415;47.870;16.058;2023-02-23T00:06:57;97050.31;;;5.24;91.08
49515;BME280;35415;47.870;16.058;2023-02-23T00:09:27;97048.94;;;5.21;91.06
49515;BME280;35415;47.870;16.058;2023-02-23T00:12:01;97067.44;;;5.28;91.54
49515;BME280;35415;47.870;16.058;2023-02-23T00:14:33;97061.53;;;5.26;91.88
49515;BME280;35415;47.870;16.058;2023-02-23T00:17:04;97061.53;;;5.26;90.55
49515;BME280;35415;47.870;16.058;2023-02-23T00:19:38;97060.75;;;5.13;91.82
49515;BME280;35415;47.870;16.058;2023-02-23T00:22:07;97061.09;;;5.17;91.99
49515;BME280;35415;47.870;16.058;2023-02-23T00:24:38;97043.75;;;5.03;92.18
49515;BME280;35415;47.870;16.058;2023-02-23T00:27:06;96960.88;;;4.47;92.41
49515;BME280;35415;47.870;16.058;2023-02-23T00:29:34;97024.47;;;4.84;92.47
49515;BME280;35415;47.870;16.058;2023-02-23T00:32:06;97057.44;;;5.06;92.56
49515;BME280;35415;47.870;16.058;2023-02-23T00:34:34;97051.75;;;5.03;92.88
49515;BME280;35415;47.870;16.058;2023-02-23T00:37:01;97013.28;;;4.70;92.93
49515;BME280;35415;47.870;16.058;2023-02-23T00:39:28;97049.00;;;4.98;92.63
49515;BME280;35415;47.870;16.058;2023-02-23T00:41:56;96950.47;;;4.34;92.44
49515;BME280;35415;47.870;16.058;2023-02-23T00:44:29;97043.69;;;4.86;92.56
49515;BME280;35415;47.870;16.058;2023-02-23T00:47:01;97009.22;;;4.68;92.23
49515;BME280;35415;47.870;16.058;2023-02-23T00:49:30;97023.72;;;4.72;92.27
49515;BME280;35415;47.870;16.058;2023-02-23T00:52:01;97020.44;;;4.70;92.71
49515;BME280;35415;47.870;16.058;2023-02-23T00:54:29;97049.72;;;4.81;93.36
49515;BME280;35415;47.870;16.058;2023-02-23T00:56:56;96976.06;;;4.35;93.20
49515;BME280;35415;47.870;16.058;2023-02-23T00:59:23;97020.50;;;4.58;93.26
49515;BME280;35415;47.870;16.058;2023-02-23T01:01:53;97052.06;;;4.78;92.79
49515;BME280;35415;47.870;16.058;2023-02-23T01:04:20;97041.66;;;4.65;93.21
49515;BME280;35415;47.870;16.058;2023-02-23T01:06:50;97037.16;;;4.65;93.17
49515;BME280;35415;47.870;16.058;2023-02-23T01:09:20;97006.53;;;4.39;93.40
49515;BME280;35415;47.870;16.058;2023-02-23T01:11:55;97000.03;;;4.35;93.59
49515;BME280;35415;47.870;16.058;2023-02-23T01:14:28;96989.66;;;4.22;93.99
49515;BME280;35415;47.870;16.058;2023-02-23T01:16:57;96995.53;;;4.24;94.43
49515;BME280;35415;47.870;16.058;2023-02-23T01:19:24;97039.00;;;4.53;94.38
49515;BME280;35415;47.870;16.058;2023-02-23T01:21:55;96982.94;;;4.08;93.84
49515;BME280;35415;47.870;16.058;2023-02-23T01:24:22;97036.97;;;4.43;94.33
49515;BME280;35415;47.870;16.058;2023-02-23T01:26:52;96993.47;;;4.14;94.59
49515;BME280;35415;47.870;16.058;2023-02-23T01:29:19;97034.44;;;4.25;94.31
49515;BME280;35415;47.870;16.058;2023-02-23T01:31:48;97014.53;;;4.16;94.49
49515;BME280;35415;47.870;16.058;2023-02-23T01:34:15;97007.34;;;4.16;94.44
49515;BME280;35415;47.870;16.058;2023-02-23T01:36:43;97026.44;;;4.25;94.70
49515;BME280;35415;47.870;16.058;2023-02-23T01:39:14;97022.41;;;4.22;94.67
49515;BME280;35415;47.870;16.058;2023-02-23T01:41:43;96964.22;;;3.79;94.40
49515;BME280;35415;47.870;16.058;2023-02-23T01:47:24;97033.50;;;4.19;95.16
49515;BME280;35415;47.870;16.058;2023-02-23T01:49:51;97030.84;;;4.19;95.23
49515;BME280;35415;47.870;16.058;2023-02-23T01:52:19;97031.78;;;4.13;95.42
49515;BME280;35415;47.870;16.058;2023-02-23T01:54:50;97011.06;;;4.04;95.19
49515;BME280;35415;47.870;16.058;2023-02-23T01:57:19;97029.22;;;4.18;93.71
49515;BME280;35415;47.870;16.058;2023-02-23T01:59:50;96984.44;;;3.80;95.11
49515;BME280;35415;47.870;16.058;2023-02-23T02:02:20;97026.81;;;4.05;95.28
49515;BME280;35415;47.870;16.058;2023-02-23T02:04:49;97017.88;;;4.00;95.87
49515;BME280;35415;47.870;16.058;2023-02-23T02:07:20;96984.31;;;3.63;96.04
49515;BME280;35415;47.870;16.058;2023-02-23T02:09:54;97011.63;;;3.82;95.98
49515;BME280;35415;47.870;16.058;2023-02-23T02:12:44;97020.09;;;3.91;96.00
49515;BME280;35415;47.870;16.058;2023-02-23T02:15:12;97019.75;;;3.87;96.53
49515;BME280;35415;47.870;16.058;2023-02-23T02:17:48;97020.56;;;3.88;96.34
49515;BME280;35415;47.870;16.058;2023-02-23T02:20:36;97015.09;;;3.83;96.25
49515;BME280;35415;47.870;16.058;2023-02-23T02:23:39;96946.00;;;3.29;95.66
49515;BME280;35415;47.870;16.058;2023-02-23T02:26:22;96980.16;;;3.56;96.92
49515;BME280;35415;47.870;16.058;2023-02-23T02:32:30;97015.78;;;3.78;96.58
49515;BME280;35415;47.870;16.058;2023-02-23T02:35:33;97016.59;;;3.79;97.11
49515;BME280;35415;47.870;16.058;2023-02-23T02:38:16;96986.63;;;3.48;97.07
49515;BME280;35415;47.870;16.058;2023-02-23T02:40:52;97014.75;;;3.56;97.45
49515;BME280;35415;47.870;16.058;2023-02-23T02:43:36;96974.69;;;3.27;97.31
49515;BME280;35415;47.870;16.058;2023-02-23T02:46:11;97026.03;;;3.51;97.92
49515;BME280;35415;47.870;16.058;2023-02-23T02:48:46;97024.78;;;3.54;97.29
49515;BME280;35415;47.870;16.058;2023-02-23T02:51:23;96998.94;;;3.31;97.59
49515;BME280;35415;47.870;16.058;2023-02-23T02:53:58;97001.59;;;3.31;97.06
49515;BME280;35415;47.870;16.058;2023-02-23T02:56:31;96970.00;;;3.11;97.84
49515;BME280;35415;47.870;16.058;2023-02-23T02:59:06;96996.63;;;3.23;98.00
49515;BME280;35415;47.870;16.058;2023-02-23T03:01:52;97009.34;;;3.21;98.82
49515;BME280;35415;47.870;16.058;2023-02-23T03:04:40;97029.16;;;3.37;98.93
49515;BME280;35415;47.870;16.058;2023-02-23T03:07:28;97016.28;;;3.22;98.75
49515;BME280;35415;47.870;16.058;2023-02-23T03:10:23;97036.75;;;3.33;98.80
49515;BME280;35415;47.870;16.058;2023-02-23T03:13:19;96956.97;;;2.80;99.13
49515;BME280;35415;47.870;16.058;2023-02-23T03:16:17;97001.78;;;3.06;99.36
49515;BME280;35415;47.870;16.058;2023-02-23T03:19:12;97044.47;;;3.23;99.38
49515;BME280;35415;47.870;16.058;2023-02-23T03:22:07;97020.50;;;3.11;98.96
49515;BME280;35415;47.870;16.058;2023-02-23T03:24:59;97045.63;;;3.27;98.79
49515;BME280;35415;47.870;16.058;2023-02-23T03:27:51;97038.94;;;3.24;99.22
49515;BME280;35415;47.870;16.058;2023-02-23T03:30:45;97041.81;;;3.23;99.43
49515;BME280;35415;47.870;16.058;2023-02-23T03:33:37;97046.31;;;3.22;99.58
49515;BME280;35415;47.870;16.058;2023-02-23T03:36:25;97039.63;;;3.20;99.70
49515;BME280;35415;47.870;16.058;2023-02-23T03:39:19;97017.56;;;3.01;99.48
49515;BME280;35415;47.870;16.058;2023-02-23T03:42:10;97045.50;;;3.22;99.22
49515;BME280;35415;47.870;16.058;2023-02-23T03:45:03;97043.91;;;3.21;99.11
49515;BME280;35415;47.870;16.058;2023-02-23T03:47:50;97045.13;;;3.18;99.20
49515;BME280;35415;47.870;16.058;2023-02-23T03:50:39;97035.34;;;3.00;99.34
49515;BME280;35415;47.870;16.058;2023-02-23T03:53:31;97031.66;;;3.01;99.52
49515;BME280;35415;47.870;16.058;2023-02-23T03:56:18;97058.88;;;3.15;98.91
49515;BME280;35415;47.870;16.058;2023-02-23T03:59:07;97058.88;;;3.15;99.38
49515;BME280;35415;47.870;16.058;2023-02-23T04:01:55;97066.84;;;3.15;98.92
49515;BME280;35415;47.870;16.058;2023-02-23T04:04:41;97069.97;;;3.12;99.09
49515;BME280;35415;47.870;16.058;2023-02-23T04:07:28;97049.09;;;2.97;99.28
49515;BME280;35415;47.870;16.058;2023-02-23T04:10:12;97066.72;;;3.10;99.41
49515;BME280;35415;47.870;16.058;2023-02-23T04:13:02;97055.81;;;3.00;99.38
49515;BME280;35415;47.870;16.058;2023-02-23T04:15:43;97074.09;;;3.08;99.96
49515;BME280;35415;47.870;16.058;2023-02-23T04:18:14;97074.34;;;3.07;99.99
49515;BME280;35415;47.870;16.058;2023-02-23T04:20:42;97071.91;;;3.05;100.00
49515;BME280;35415;47.870;16.058;2023-02-23T04:23:10;97075.59;;;3.04;100.00
49515;BME280;35415;47.870;16.058;2023-02-23T04:25:37;97055.09;;;2.93;99.93
49515;BME280;35415;47.870;16.058;2023-02-23T04:28:04;97072.94;;;3.04;99.95
49515;BME280;35415;47.870;16.058;2023-02-23T04:30:31;97044.09;;;2.89;100.00
49515;BME280;35415;47.870;16.058;2023-02-23T04:32:59;97071.91;;;3.05;100.00
49515;BME280;35415;47.870;16.058;2023-02-23T04:35:28;97080.69;;;3.06;100.00
49515;BME280;35415;47.870;16.058;2023-02-23T04:37:57;97071.31;;;3.03;100.00
49515;BME280;35415;47.870;16.058;2023-02-23T04:40:24;97081.72;;;3.05;100.00
49515;BME280;35415;47.870;16.058;2023-02-23T04:42:52;97085.53;;;3.09;100.00
49515;BME280;35415;47.870;16.058;2023-02-23T04:45:21;97038.94;;;2.76;100.00
49515;BME280;35415;47.870;16.058;2023-02-23T04:47:49;97053.94;;;2.89;100.00
49515;BME280;35415;47.870;16.058;2023-02-23T04:50:17;97069.31;;;2.98;100.00
49515;BME280;35415;47.870;16.058;2023-02-23T04:52:47;97089.59;;;3.11;100.00
49515;BME280;35415;47.870;16.058;2023-02-23T04:55:16;97080.81;;;3.11;100.00
49515;BME280;35415;47.870;16.058;2023-02-23T04:57:44;97084.88;;;3.13;100.00
49515;BME280;35415;47.870;16.058;2023-02-23T05:00:15;97034.34;;;2.83;100.00
49515;BME280;35415;47.870;16.058;2023-02-23T05:02:43;97031.66;;;2.71;100.00
49515;BME280;35415;47.870;16.058;2023-02-23T05:05:12;97069.41;;;2.92;100.00
49515;BME280;35415;47.870;16.058;2023-02-23T05:07:39;97086.22;;;3.04;100.00
49515;BME280;35415;47.870;16.058;2023-02-23T05:10:10;97033.31;;;2.84;99.98
49515;BME280;35415;47.870;16.058;2023-02-23T05:12:38;97070.88;;;3.06;100.00
49515;BME280;35415;47.870;16.058;2023-02-23T05:15:07;97026.34;;;2.71;100.00
49515;BME280;35415;47.870;16.058;2023-02-23T05:17:37;97080.91;;;3.04;100.00
49515;BME280;35415;47.870;16.058;2023-02-23T05:20:06;97059.06;;;2.84;100.00
49515;BME280;35415;47.870;16.058;2023-02-23T05:22:33;97018.53;;;2.58;100.00
49515;BME280;35415;47.870;16.058;2023-02-23T05:25:01;97083.63;;;2.97;100.00
49515;BME280;35415;47.870;16.058;2023-02-23T05:27:30;97042.06;;;2.73;100.00
49515;BME280;35415;47.870;16.058;2023-02-23T05:30:01;97081.66;;;2.93;100.00
49515;BME280;35415;47.870;16.058;2023-02-23T05:32:28;97085.03;;;3.00;100.00
49515;BME280;35415;47.870;16.058;2023-02-23T05:34:55;97059.88;;;2.84;100.00
49515;BME280;35415;47.870;16.058;2023-02-23T05:37:23;97059.16;;;2.77;100.00
49515;BME280;35415;47.870;16.058;2023-02-23T05:39:50;97071.13;;;2.86;100.00
49515;BME280;35415;47.870;16.058;2023-02-23T05:42:17;97091.47;;;2.92;100.00
49515;BME280;35415;47.870;16.058;2023-02-23T05:44:45;97035.63;;;2.62;100.00
49515;BME280;35415;47.870;16.058;2023-02-23T05:47:17;97087.41;;;2.90;100.00
49515;BME280;35415;47.870;16.058;2023-02-23T05:49:51;97091.13;;;2.89;100.00
49515;BME280;35415;47.870;16.058;2023-02-23T05:52:18;97090.53;;;2.87;100.00
49515;BME280;35415;47.870;16.058;2023-02-23T05:54:45;97045.59;;;2.49;100.00
49515;BME280;35415;47.870;16.058;2023-02-23T05:57:13;97080.41;;;2.77;100.00
49515;BME280;35415;47.870;16.058;2023-02-23T05:59:40;97086.53;;;2.78;100.00
49515;BME280;35415;47.870;16.058;2023-02-23T06:02:08;97082.34;;;2.70;100.00
49515;BME280;35415;47.870;16.058;2023-02-23T06:04:35;97107.56;;;2.79;100.00
49515;BME280;35415;47.870;16.058;2023-02-23T06:07:03;97063.00;;;2.45;100.00
49515;BME280;35415;47.870;16.058;2023-02-23T06:09:30;97101.06;;;2.75;100.00
49515;BME280;35415;47.870;16.058;2023-02-23T06:11:57;97070.47;;;2.54;100.00
49515;BME280;35415;47.870;16.058;2023-02-23T06:14:27;97048.69;;;2.27;100.00
49515;BME280;35415;47.870;16.058;2023-02-23T06:16:54;97095.53;;;2.58;100.00
49515;BME280;35415;47.870;16.058;2023-02-23T06:19:22;97102.38;;;2.66;100.00
49515;BME280;35415;47.870;16.058;2023-02-23T06:21:49;97056.22;;;2.30;100.00
49515;BME280;35415;47.870;16.058;2023-02-23T06:24:17;97086.66;;;2.46;100.00
49515;BME280;35415;47.870;16.058;2023-02-23T06:26:44;97113.81;;;2.66;100.00
49515;BME280;35415;47.870;16.058;2023-02-23T06:29:11;97117.28;;;2.67;100.00
49515;BME280;35415;47.870;16.058;2023-02-23T06:31:39;97114.81;;;2.72;100.00
49515;BME280;35415;47.870;16.058;2023-02-23T06:34:09;97124.63;;;2.71;100.00
49515;BME280;35415;47.870;16.058;2023-02-23T06:36:37;97127.50;;;2.70;100.00
49515;BME280;35415;47.870;16.058;2023-02-23T06:39:05;97129.97;;;2.65;100.00
49515;BME280;35415;47.870;16.058;2023-02-23T06:41:32;97119.13;;;2.66;100.00
49515;BME280;35415;47.870;16.058;2023-02-23T06:44:00;97044.69;;;2.18;100.00
49515;BME280;35415;47.870;16.058;2023-02-23T06:46:27;97086.66;;;2.46;100.00
49515;BME280;35415;47.870;16.058;2023-02-23T06:48:55;97092.78;;;2.47;100.00
49515;BME280;35415;47.870;16.058;2023-02-23T06:51:24;97134.03;;;2.67;100.00
49515;BME280;35415;47.870;16.058;2023-02-23T06:53:53;97126.06;;;2.67;100.00
49515;BME280;35415;47.870;16.058;2023-02-23T06:56:20;97106.88;;;2.47;100.00
49515;BME280;35415;47.870;16.058;2023-02-23T06:58:47;97130.16;;;2.70;100.00
49515;BME280;35415;47.870;16.058;2023-02-23T07:01:15;97129.53;;;2.68;100.00
49515;BME280;35415;47.870;16.058;2023-02-23T07:03:45;97067.72;;;2.24;100.00
49515;BME280;35415;47.870;16.058;2023-02-23T07:06:14;97072.56;;;2.27;100.00
49515;BME280;35415;47.870;16.058;2023-02-23T07:08:42;97101.50;;;2.54;100.00
49515;BME280;35415;47.870;16.058;2023-02-23T07:11:13;97102.69;;;2.58;100.00
49515;BME280;35415;47.870;16.058;2023-02-23T07:13:41;97119.31;;;2.71;100.00
49515;BME280;35415;47.870;16.058;2023-02-23T07:16:08;97137.94;;;2.83;100.00
49515;BME280;35415;47.870;16.058;2023-02-23T07:18:36;97103.78;;;2.68;100.00
49515;BME280;35415;47.870;16.058;2023-02-23T07:21:03;97079.28;;;2.48;100.00
49515;BME280;35415;47.870;16.058;2023-02-23T07:23:31;97084.91;;;2.58;100.00
49515;BME280;35415;47.870;16.058;2023-02-23T07:25:58;97135.38;;;2.95;100.00
49515;BME280;35415;47.870;16.058;2023-02-23T07:28:26;97139.44;;;2.97;100.00
49515;BME280;35415;47.870;16.058;2023-02-23T07:30:55;97148.78;;;3.00;100.00
49515;BME280;35415;47.870;16.058;2023-02-23T07:33:22;97064.34;;;2.54;100.00
49515;BME280;35415;47.870;16.058;2023-02-23T07:35:50;97103.81;;;2.87;100.00
49515;BME280;35415;47.870;16.058;2023-02-23T07:38:17;97105.44;;;2.88;100.00
49515;BME280;35415;47.870;16.058;2023-02-23T07:40:50;97098.09;;;2.83;100.00
49515;BME280;35415;47.870;16.058;2023-02-23T07:43:29;97107.88;;;2.89;100.00
49515;BME280;35415;47.870;16.058;2023-02-23T07:45:58;97069.66;;;2.72;100.00
49515;BME280;35415;47.870;16.058;2023-02-23T07:48:26;97106.22;;;3.07;100.00
49515;BME280;35415;47.870;16.058;2023-02-23T07:50:57;97114.03;;;3.20;100.00
49515;BME280;35415;47.870;16.058;2023-02-23T07:53:27;97134.34;;;3.44;100.00
49515;BME280;35415;47.870;16.058;2023-02-23T07:55:56;97091.34;;;3.17;100.00
49515;BME280;35415;47.870;16.058;2023-02-23T07:58:24;97118.63;;;3.43;100.00
49515;BME280;35415;47.870;16.058;2023-02-23T08:00:55;97089.03;;;3.39;100.00
49515;BME280;35415;47.870;16.058;2023-02-23T08:03:27;97065.81;;;3.16;100.00
49515;BME280;35415;47.870;16.058;2023-02-23T08:06:04;97094.53;;;3.56;100.00
49515;BME280;35415;47.870;16.058;2023-02-23T08:08:31;97141.00;;;3.95;100.00
49515;BME280;35415;47.870;16.058;2023-02-23T08:11:00;97134.03;;;3.94;100.00
49515;BME280;35415;47.870;16.058;2023-02-23T08:13:27;97086.19;;;3.64;100.00
49515;BME280;35415;47.870;16.058;2023-02-23T08:16:02;97074.28;;;3.67;100.00
49515;BME280;35415;47.870;16.058;2023-02-23T08:18:34;97084.66;;;3.86;100.00
49515;BME280;35415;47.870;16.058;2023-02-23T08:21:04;97078.97;;;3.95;100.00
49515;BME280;35415;47.870;16.058;2023-02-23T08:23:33;97119.94;;;4.17;100.00
49515;BME280;35415;47.870;16.058;2023-02-23T08:26:01;97061.97;;;3.96;100.00
49515;BME280;35415;47.870;16.058;2023-02-23T08:28:28;97058.16;;;4.03;100.00
49515;BME280;35415;47.870;16.058;2023-02-23T08:30:56;97080.03;;;4.17;100.00
49515;BME280;35415;47.870;16.058;2023-02-23T08:33:25;97097.50;;;4.48;100.00
49515;BME280;35415;47.870;16.058;2023-02-23T08:35:52;97134.34;;;4.74;100.00
49515;BME280;35415;47.870;16.058;2023-02-23T08:38:19;97061.25;;;4.35;100.00
49515;BME280;35415;47.870;16.058;2023-02-23T08:40:46;97132.22;;;4.88;100.00
49515;BME280;35415;47.870;16.058;2023-02-23T08:43:13;97066.13;;;4.50;100.00
49515;BME280;35415;47.870;16.058;2023-02-23T08:45:40;97105.22;;;4.84;100.00
49515;BME280;35415;47.870;16.058;2023-02-23T08:48:07;97106.25;;;4.95;100.00
49515;BME280;35415;47.870;16.058;2023-02-23T08:50:36;97137.81;;;5.27;100.00
49515;BME280;35415;47.870;16.058;2023-02-23T08:53:03;97134.53;;;5.36;100.00
49515;BME280;35415;47.870;16.058;2023-02-23T08:55:31;97107.78;;;5.20;100.00
49515;BME280;35415;47.870;16.058;2023-02-23T08:58:00;97130.06;;;5.54;100.00
49515;BME280;35415;47.870;16.058;2023-02-23T09:00:33;97126.28;;;5.66;100.00
49515;BME280;35415;47.870;16.058;2023-02-23T09:03:03;97119.38;;;5.82;100.00
49515;BME280;35415;47.870;16.058;2023-02-23T09:05:31;97061.38;;;5.61;100.00
49515;BME280;35415;47.870;16.058;2023-02-23T09:07:59;97104.78;;;6.01;100.00
49515;BME280;35415;47.870;16.058;2023-02-23T09:10:27;97096.44;;;6.15;100.00
49515;BME280;35415;47.870;16.058;2023-02-23T09:12:54;97131.47;;;6.52;100.00
49515;BME280;35415;47.870;16.058;2023-02-23T09:15:24;97056.47;;;6.20;100.00
49515;BME280;35415;47.870;16.058;2023-02-23T09:17:59;97105.06;;;6.72;100.00
49515;BME280;35415;47.870;16.058;2023-02-23T09:20:26;97051.66;;;6.55;100.00
49515;BME280;35415;47.870;16.058;2023-02-23T09:22:53;97095.19;;;6.94;100.00
49515;BME280;35415;47.870;16.058;2023-02-23T09:25:24;97056.38;;;6.92;100.00
49515;BME280;35415;47.870;16.058;2023-02-23T09:27:57;97060.88;;;7.08;100.00
49515;BME280;35415;47.870;16.058;2023-02-23T09:30:25;97093.53;;;7.37;100.00
49515;BME280;35415;47.870;16.058;2023-02-23T09:32:54;97106.72;;;7.71;100.00
49515;BME280;35415;47.870;16.058;2023-02-23T09:35:24;97118.66;;;7.85;100.00
49515;BME280;35415;47.870;16.058;2023-02-23T09:37:54;97134.22;;;8.15;100.00
49515;BME280;35415;47.870;16.058;2023-02-23T09:40:28;97073.44;;;7.89;99.04
49515;BME280;35415;47.870;16.058;2023-02-23T09:43:02;97088.66;;;8.15;98.59
49515;BME280;35415;47.870;16.058;2023-02-23T09:45:38;97065.53;;;8.04;97.99
49515;BME280;35415;47.870;16.058;2023-02-23T09:48:15;97073.25;;;8.32;96.85
49515;BME280;35415;47.870;16.058;2023-02-23T09:50:46;97042.94;;;8.27;96.68
49515;BME280;35415;47.870;16.058;2023-02-23T09:53:28;97126.97;;;8.85;96.34
49515;BME280;35415;47.870;16.058;2023-02-23T09:55:58;97132.13;;;8.96;95.83
49515;BME280;35415;47.870;16.058;2023-02-23T09:58:27;97061.69;;;8.64;95.61
49515;BME280;35415;47.870;16.058;2023-02-23T10:01:21;97131.97;;;9.18;95.54
49515;BME280;35415;47.870;16.058;2023-02-23T10:03:56;97135.78;;;9.27;94.83
49515;BME280;35415;47.870;16.058;2023-02-23T10:06:25;97118.88;;;9.32;94.46
49515;BME280;35415;47.870;16.058;2023-02-23T10:09:02;97129.41;;;9.54;95.11
49515;BME280;35415;47.870;16.058;2023-02-23T10:11:36;97127.59;;;9.70;95.26
49515;BME280;35415;47.870;16.058;2023-02-23T10:14:21;97125.75;;;9.85;95.02
49515;BME280;35415;47.870;16.058;2023-02-23T10:17:02;97128.19;;;10.02;93.98
49515;BME280;35415;47.870;16.058;2023-02-23T10:19:36;97137.38;;;10.21;93.33
49515;BME280;35415;47.870;16.058;2023-02-23T10:22:09;97135.22;;;10.39;92.50
49515;BME280;35415;47.870;16.058;2023-02-23T10:24:42;97137.34;;;10.57;92.28
49515;BME280;35415;47.870;16.058;2023-02-23T10:27:15;97130.34;;;10.71;91.19
49515;BME280;35415;47.870;16.058;2023-02-23T10:29:47;97131.66;;;10.89;90.34
49515;BME280;35415;47.870;16.058;2023-02-23T10:32:19;97125.97;;;11.06;90.22
49515;BME280;35415;47.870;16.058;2023-02-23T10:34:48;97125.94;;;11.21;89.08
49515;BME280;35415;47.870;16.058;2023-02-23T10:37:20;97108.41;;;11.29;88.16
49515;BME280;35415;47.870;16.058;2023-02-23T10:39:47;97112.66;;;11.45;86.78
49515;BME280;35415;47.870;16.058;2023-02-23T10:42:20;97117.38;;;11.68;87.00
49515;BME280;35415;47.870;16.058;2023-02-23T10:44:48;97100.91;;;11.80;89.30
49515;BME280;35415;47.870;16.058;2023-02-23T10:47:18;97099.44;;;11.98;86.24
49515;BME280;35415;47.870;16.058;2023-02-23T10:49:50;97081.06;;;12.05;84.81
49515;BME280;35415;47.870;16.058;2023-02-23T10:52:20;97057.00;;;12.14;83.54
49515;BME280;35415;47.870;16.058;2023-02-23T10:54:52;97050.16;;;12.26;83.12
49515;BME280;35415;47.870;16.058;2023-02-23T10:57:37;97009.28;;;12.14;82.96
49515;BME280;35415;47.870;16.058;2023-02-23T11:00:23;97018.69;;;12.46;82.51
49515;BME280;35415;47.870;16.058;2023-02-23T11:03:02;97019.34;;;12.61;81.17
49515;BME280;35415;47.870;16.058;2023-02-23T11:05:54;97008.38;;;12.77;79.86
49515;BME280;35415;47.870;16.058;2023-02-23T11:08:25;97040.06;;;13.14;80.51
49515;BME280;35415;47.870;16.058;2023-02-23T11:11:01;97003.09;;;13.09;79.15
49515;BME280;35415;47.870;16.058;2023-02-23T11:13:37;96999.75;;;13.17;78.29
49515;BME280;35415;47.870;16.058;2023-02-23T11:16:08;97038.38;;;13.61;78.03
49515;BME280;35415;47.870;16.058;2023-02-23T11:18:39;97057.13;;;13.90;78.37
49515;BME280;35415;47.870;16.058;2023-02-23T11:21:12;97039.06;;;14.04;78.18
49515;BME280;35415;47.870;16.058;2023-02-23T11:23:40;97024.63;;;13.95;76.17
49515;BME280;35415;47.870;16.058;2023-02-23T11:26:24;97046.78;;;14.29;78.28
49515;BME280;35415;47.870;16.058;2023-02-23T11:28:57;97037.47;;;14.35;76.19
49515;BME280;35415;47.870;16.058;2023-02-23T11:31:31;97014.72;;;14.36;75.54
49515;BME280;35415;47.870;16.058;2023-02-23T11:34:00;97044.34;;;14.60;73.45
49515;BME280;35415;47.870;16.058;2023-02-23T11:36:33;97045.88;;;14.66;73.44
49515;BME280;35415;47.870;16.058;2023-02-23T11:39:08;96971.91;;;14.25;72.70
49515;BME280;35415;47.870;16.058;2023-02-23T11:41:40;97028.34;;;14.64;72.63
49515;BME280;35415;47.870;16.058;2023-02-23T11:44:18;97005.75;;;14.55;73.60
49515;BME280;35415;47.870;16.058;2023-02-23T11:46:46;97019.78;;;14.57;72.04
49515;BME280;35415;47.870;16.058;2023-02-23T11:49:17;96999.16;;;14.47;71.68
49515;BME280;35415;47.870;16.058;2023-02-23T11:51:47;96980.34;;;14.37;72.67
49515;BME280;35415;47.870;16.058;2023-02-23T11:54:21;97041.16;;;14.72;72.08
49515;BME280;35415;47.870;16.058;2023-02-23T11:56:49;97024.34;;;14.61;71.73
49515;BME280;35415;47.870;16.058;2023-02-23T11:59:31;97026.94;;;14.66;72.15
49515;BME280;35415;47.870;16.058;2023-02-23T12:02:05;97036.16;;;14.65;72.16
49515;BME280;35415;47.870;16.058;2023-02-23T12:04:46;97024.31;;;14.48;71.44
49515;BME280;35415;47.870;16.058;2023-02-23T12:07:33;97044.97;;;14.57;72.10
49515;BME280;35415;47.870;16.058;2023-02-23T12:10:10;97040.06;;;14.40;71.66
49515;BME280;35415;47.870;16.058;2023-02-23T12:12:49;97040.38;;;14.39;71.37
49515;BME280;35415;47.870;16.058;2023-02-23T12:15:27;97040.47;;;14.34;72.12
49515;BME280;35415;47.870;16.058;2023-02-23T12:18:02;97035.66;;;14.31;72.23
49515;BME280;35415;47.870;16.058;2023-02-23T12:20:36;97039.78;;;14.28;72.55
49515;BME280;35415;47.870;16.058;2023-02-23T12:23:07;97026.00;;;14.25;73.12
49515;BME280;35415;47.870;16.058;2023-02-23T12:25:39;96988.59;;;13.99;72.80
49515;BME280;35415;47.870;16.058;2023-02-23T12:28:12;97001.25;;;14.18;73.21
49515;BME280;35415;47.870;16.058;2023-02-23T12:30:47;96965.75;;;14.05;73.42
49515;BME280;35415;47.870;16.058;2023-02-23T12:33:20;96975.31;;;14.17;73.36
49515;BME280;35415;47.870;16.058;2023-02-23T12:35:57;97002.84;;;14.51;73.14
49515;BME280;35415;47.870;16.058;2023-02-23T12:38:35;97018.50;;;14.68;72.87
49515;BME280;35415;47.870;16.058;2023-02-23T12:41:10;96976.09;;;14.50;72.19
49515;BME280;35415;47.870;16.058;2023-02-23T12:43:43;96978.69;;;14.55;71.47
49515;BME280;35415;47.870;16.058;2023-02-23T12:46:19;96952.09;;;14.43;71.52
49515;BME280;35415;47.870;16.058;2023-02-23T12:48:59;97001.56;;;14.76;71.49
49515;BME280;35415;47.870;16.058;2023-02-23T12:51:34;96950.94;;;14.49;70.88
49515;BME280;35415;47.870;16.058;2023-02-23T12:54:08;96986.72;;;14.73;70.79
49515;BME280;35415;47.870;16.058;2023-02-23T12:56:53;97013.31;;;14.99;71.40
49515;BME280;35415;47.870;16.058;2023-02-23T13:02:19;96973.56;;;14.94;70.72
49515;BME280;35415;47.870;16.058;2023-02-23T13:05:12;97000.75;;;15.17;71.36
49515;BME280;35415;47.870;16.058;2023-02-23T13:07:48;96999.84;;;15.21;70.25
49515;BME280;35415;47.870;16.058;2023-02-23T13:10:31;96973.47;;;15.13;69.75
49515;BME280;35415;47.870;16.058;2023-02-23T13:13:16;96988.00;;;15.31;69.87
49515;BME280;35415;47.870;16.058;2023-02-23T13:15:54;96927.94;;;15.01;69.50
49515;BME280;35415;47.870;16.058;2023-02-23T13:18:35;96936.34;;;15.14;69.52
49515;BME280;35415;47.870;16.058;2023-02-23T13:21:07;96941.94;;;15.17;68.38
49515;BME280;35415;47.870;16.058;2023-02-23T13:23:40;96999.84;;;15.57;69.07
49515;BME280;35415;47.870;16.058;2023-02-23T13:26:15;96932.41;;;15.20;68.46
49515;BME280;35415;47.870;16.058;2023-02-23T13:28:50;96963.25;;;15.46;68.54
49515;BME280;35415;47.870;16.058;2023-02-23T13:31:23;96973.09;;;15.42;68.82
49515;BME280;35415;47.870;16.058;2023-02-23T13:33:57;96936.22;;;15.19;68.63